Prevelis — SYDL — position and weather

sailwx.info

Track history (hours):
 
Tides and Currents Weather Stations Pressure Air Temp Water Temp Dewpoint Dewpoint Depression Visibility Wind Speed Wind Dir Waves Ship Positions

Prevelis

Last reported at 2016-Sep-24 03:33 UTC. Time now 2016-Sep-26 19:04 UTC.
Position N 37°57' E 023°38'.

Length 143 m; draft 5.5 m.

Type: Passenger vessel. MMSI: 239297000.

Date/timePositionNaut miles runAvg speedWind from/ knotsBaromVisibWave heightAir tempDewpointWater temp
2016-Sep-24 03:33N 37°57' E 023°38'0 0.0
2016-Sep-24 02:33N 37°57' E 023°38'0 0.0
2016-Sep-24 01:33N 37°57' E 023°38'0 0.0
2016-Sep-24 00:33N 37°57' E 023°38'0 0.0
2016-Sep-23 19:33N 37°57' E 023°38'0 0.0
2016-Sep-23 17:33N 37°57' E 023°38'0 0.0
2016-Sep-23 16:33N 37°57' E 023°38'0 0.0
2016-Sep-23 15:33N 37°57' E 023°38'0 0.0
2016-Sep-23 13:33N 37°57' E 023°38'0 0.0
2016-Sep-23 09:33N 37°57' E 023°38'0 0.0
2016-Sep-23 06:33N 37°57' E 023°38'8 3.9
2016-Sep-23 04:33N 37°49' E 023°40'1616.4
2016-Sep-23 03:33N 37°34' E 023°48'1616.2
2016-Sep-23 02:33N 37°20' E 023°59'  
2016-Sep-20 17:33N 37°57' E 023°38'0 0.0
2016-Sep-20 14:33N 37°57' E 023°38'0 0.0
2016-Sep-20 13:34N 37°57' E 023°38'0 0.0
2016-Sep-20 10:34N 37°57' E 023°38'0 0.0
2016-Sep-20 08:33N 37°57' E 023°38'0 0.0
2016-Sep-20 07:33N 37°57' E 023°38'0 0.0
2016-Sep-20 06:33N 37°57' E 023°38'0 0.0
2016-Sep-20 02:33N 37°57' E 023°38'0 0.0
2016-Sep-19 23:34N 37°57' E 023°38'0 0.0
2016-Sep-19 19:33N 37°57' E 023°38'0 0.0
2016-Sep-19 18:33N 37°57' E 023°38'0 0.0
2016-Sep-19 16:33N 37°57' E 023°38'0 0.0
2016-Sep-19 14:33N 37°57' E 023°38'0 0.0
2016-Sep-19 13:33N 37°57' E 023°38'0 0.0
2016-Sep-19 12:33N 37°57' E 023°38'0 0.0
2016-Sep-19 11:33N 37°57' E 023°38'0 0.0
2016-Sep-19 09:33N 37°57' E 023°38'2814.1
2016-Sep-19 07:33N 37°30' E 023°51'  
2016-Sep-16 17:32N 37°22' E 023°56'3216.3
2016-Sep-16 15:33N 37°50' E 023°37'7 2.2
2016-Sep-16 12:33N 37°57' E 023°38'0 0.0
2016-Sep-16 09:33N 37°57' E 023°38'0 0.0
2016-Sep-16 07:34N 37°57' E 023°38'38 9.3
2016-Sep-16 03:29N 37°22' E 023°56'1516.1
2016-Sep-16 02:33N 37°10' E 024°07'3113.7
2016-Sep-16 00:18N 36°43' E 024°26'  
Track history (hours):
 
Tides and Currents Weather Stations Pressure Air Temp Water Temp Dewpoint Dewpoint Depression Visibility Wind Speed Wind Dir Waves Ship Positions

Prevelis

Last reported at 2016-Sep-24 03:33 UTC. Time now 2016-Sep-26 19:04 UTC.
Position N 37°57' E 023°38'.

Length 143 m; draft 5.5 m.

Type: Passenger vessel. MMSI: 239297000.

Date/timePositionNaut miles runAvg speedWind from/ knotsBaromVisibWave heightAir tempDewpointWater temp
2016-Sep-24 03:33N 37°57' E 023°38'0 0.0
2016-Sep-24 02:33N 37°57' E 023°38'0 0.0
2016-Sep-24 01:33N 37°57' E 023°38'0 0.0
2016-Sep-24 00:33N 37°57' E 023°38'0 0.0
2016-Sep-23 19:33N 37°57' E 023°38'0 0.0
2016-Sep-23 17:33N 37°57' E 023°38'0 0.0
2016-Sep-23 16:33N 37°57' E 023°38'0 0.0
2016-Sep-23 15:33N 37°57' E 023°38'0 0.0
2016-Sep-23 13:33N 37°57' E 023°38'0 0.0
2016-Sep-23 09:33N 37°57' E 023°38'0 0.0
2016-Sep-23 06:33N 37°57' E 023°38'8 3.9
2016-Sep-23 04:33N 37°49' E 023°40'1616.4
2016-Sep-23 03:33N 37°34' E 023°48'1616.2
2016-Sep-23 02:33N 37°20' E 023°59'  
2016-Sep-20 17:33N 37°57' E 023°38'0 0.0
2016-Sep-20 14:33N 37°57' E 023°38'0 0.0
2016-Sep-20 13:34N 37°57' E 023°38'0 0.0
2016-Sep-20 10:34N 37°57' E 023°38'0 0.0
2016-Sep-20 08:33N 37°57' E 023°38'0 0.0
2016-Sep-20 07:33N 37°57' E 023°38'0 0.0
2016-Sep-20 06:33N 37°57' E 023°38'0 0.0
2016-Sep-20 02:33N 37°57' E 023°38'0 0.0
2016-Sep-19 23:34N 37°57' E 023°38'0 0.0
2016-Sep-19 19:33N 37°57' E 023°38'0 0.0
2016-Sep-19 18:33N 37°57' E 023°38'0 0.0
2016-Sep-19 16:33N 37°57' E 023°38'0 0.0
2016-Sep-19 14:33N 37°57' E 023°38'0 0.0
2016-Sep-19 13:33N 37°57' E 023°38'0 0.0
2016-Sep-19 12:33N 37°57' E 023°38'0 0.0
2016-Sep-19 11:33N 37°57' E 023°38'0 0.0
2016-Sep-19 09:33N 37°57' E 023°38'2814.1
2016-Sep-19 07:33N 37°30' E 023°51'  
2016-Sep-16 17:32N 37°22' E 023°56'3216.3
2016-Sep-16 15:33N 37°50' E 023°37'7 2.2
2016-Sep-16 12:33N 37°57' E 023°38'0 0.0
2016-Sep-16 09:33N 37°57' E 023°38'0 0.0
2016-Sep-16 07:34N 37°57' E 023°38'38 9.3
2016-Sep-16 03:29N 37°22' E 023°56'1516.1
2016-Sep-16 02:33N 37°10' E 024°07'3113.7
2016-Sep-16 00:18N 36°43' E 024°26'  

Dump ship's entire track history